Island Princess — ZCDG4 — position and weather

sailwx.info

Track history (hours):
 
Tides and Currents Weather Stations Pressure Air Temp Water Temp Dewpoint Dewpoint Depression Visibility Wind Speed Wind Dir Waves Ship Positions

Island Princess

Operator: Princess Cruises

Last reported at 2017-Sep-22 10:00 UTC. Time now 2017-Sep-22 13:48 UTC.
Position N 39°48' W 124°30'.

Type: Ship. MMSI: 310384000.

Wind from 010 at 12 knots

Barometer 1015.0 mb
Air temperature 14.0 ° C
Visibility: greater than 10.8 NM
Dewpoint 10.2 ° C
Water temperature 18.0 ° C

Date/timePositionNaut miles runAvg speedWind from/ knotsBaromVisibWave heightAir tempDewpointWater temp
2017-Sep-22 10:00N 39°48' W 124°30'596149.1 010 / 121015.010.8 14.010.218.0
2017-Sep-22 06:00N 45°48' W 135°18'45156.4 220 / 101015.0 5.4 15.012.318.0
2017-Sep-21 22:00N 44°00' W 125°00'8326.3 220 / 81012.910.8 15.013.216.0
2017-Sep-21 18:50N 45°23' W 125°08'0 0.4
2017-Sep-21 18:01N 45°23' W 125°08'020.8
2017-Sep-21 18:00N 45°23' W 125°08'6537.4
2017-Sep-21 18:00N 45°18' W 125°06'1632.3 150 / 81013.010.8 15.512.812.0
2017-Sep-21 17:30N 45°34' W 125°09'1020.4
2017-Sep-21 17:00N 45°44' W 125°10'1020.2
2017-Sep-21 16:30N 45°54' W 125°10'1020.3
2017-Sep-21 16:00N 46°04' W 125°11'1020.1
2017-Sep-21 15:30N 46°14' W 125°12'1020.4
2017-Sep-21 15:00N 46°24' W 125°13'1020.4
2017-Sep-21 14:30N 46°34' W 125°13'1020.3
2017-Sep-21 14:00N 46°45' W 125°14'6620.2
2017-Sep-21 10:44N 47°50' W 125°19'720.2
2017-Sep-21 10:24N 47°57' W 125°21'1219.9
2017-Sep-21 09:49N 48°08' W 125°14'619.6
2017-Sep-21 09:29N 48°14' W 125°11'1019.9
2017-Sep-21 09:00N 48°23' W 125°08'918.3
2017-Sep-21 08:29N 48°31' W 125°00'1019.7
2017-Sep-21 08:00N 48°31' W 124°46'1020.6
2017-Sep-21 07:30N 48°27' W 124°32'1121.2
2017-Sep-21 07:00N 48°23' W 124°17'161153.7
2017-Sep-21 07:00N 48°18' W 123°54'510.1 270 / 121009.9 5.4 11.0 9.0 9.0
2017-Sep-21 06:30N 48°19' W 124°01'1121.7
2017-Sep-21 06:00N 48°17' W 123°46'1122.2
2017-Sep-21 05:30N 48°17' W 123°29'816.0
2017-Sep-21 05:00N 48°23' W 123°22'713.9
2017-Sep-21 04:30N 48°25' W 123°12'611.8
2017-Sep-21 04:00N 48°31' W 123°13'612.0
2017-Sep-21 03:30N 48°37' W 123°14'713.6
2017-Sep-21 03:00N 48°43' W 123°11'917.4
2017-Sep-21 02:30N 48°49' W 123°01'917.6
2017-Sep-21 02:00N 48°55' W 123°10'917.5
2017-Sep-21 01:30N 49°01' W 123°19'816.3
2017-Sep-21 01:00N 49°09' W 123°23'917.7
2017-Sep-21 00:30N 49°18' W 123°21'815.8
2017-Sep-21 00:00N 49°19' W 123°09'3 5.1
2017-Sep-20 23:30N 49°17' W 123°06'0 0.0
2017-Sep-20 22:58N 49°17' W 123°06'0 0.0
2017-Sep-20 22:28N 49°17' W 123°06'0 0.0
2017-Sep-20 22:00N 49°17' W 123°06'0 0.0
2017-Sep-20 21:30N 49°17' W 123°06'0 0.0
2017-Sep-20 21:00N 49°17' W 123°06'0 0.0
2017-Sep-20 20:30N 49°17' W 123°06'0 0.0
2017-Sep-20 19:59N 49°17' W 123°06'0 0.0
2017-Sep-20 19:30N 49°17' W 123°06'0 0.0
2017-Sep-20 19:00N 49°17' W 123°06'0 0.0
2017-Sep-20 18:30N 49°17' W 123°06'0 0.0
2017-Sep-20 18:00N 49°17' W 123°06'0 0.0
2017-Sep-20 17:30N 49°17' W 123°06'0 0.0
2017-Sep-20 17:00N 49°17' W 123°06'0 0.0
2017-Sep-20 16:30N 49°17' W 123°06'0 0.0
2017-Sep-20 16:00N 49°17' W 123°06'0 0.0
2017-Sep-20 15:29N 49°17' W 123°06'0 0.0
2017-Sep-20 14:59N 49°17' W 123°06'0 0.0
2017-Sep-20 14:00N 49°17' W 123°06'0 0.8
2017-Sep-20 13:30N 49°18' W 123°06'4 7.8
2017-Sep-20 13:00N 49°19' W 123°12'611.5
2017-Sep-20 12:30N 49°18' W 123°21'713.4
2017-Sep-20 12:00N 49°19' W 123°31'815.6
2017-Sep-20 11:30N 49°20' W 123°43'917.4
2017-Sep-20 11:00N 49°21' W 123°56'917.4
2017-Sep-20 10:30N 49°23' W 124°09'917.3
2017-Sep-20 10:00N 49°26' W 124°21'3198.8
2017-Sep-20 10:00N 49°24' W 124°18'1224.7 350 / 61004.910.8 12.010.112.0
2017-Sep-20 09:30N 49°32' W 124°32'917.4
2017-Sep-20 09:00N 49°39' W 124°40'917.4
2017-Sep-20 08:30N 49°45' W 124°50'917.6
2017-Sep-20 08:00N 49°51' W 124°59'917.3
2017-Sep-20 07:30N 49°57' W 125°09'713.6
2017-Sep-20 07:00N 50°03' W 125°14'713.5
2017-Sep-20 06:30N 50°08' W 125°21'510.1
2017-Sep-20 06:00N 50°13' W 125°23'5 9.5
2017-Sep-20 05:28N 50°18' W 125°25'12 8.6
2017-Sep-20 04:08N 50°22' W 125°42'3 9.8
2017-Sep-20 03:53N 50°22' W 125°46'17 9.4
2017-Sep-20 02:04N 50°28' W 126°10'1 9.2
2017-Sep-20 01:56N 50°29' W 126°12'8 9.4
2017-Sep-20 01:05N 50°30' W 126°25'210.8
2017-Sep-20 00:54N 50°30' W 126°28'12 9.8
2017-Sep-19 23:41N 50°36' W 126°44'315.1
2017-Sep-19 23:27N 50°38' W 126°48'817.0
2017-Sep-19 23:00N 50°43' W 126°58'916.2
2017-Sep-19 22:27N 50°46' W 127°11'716.3
2017-Sep-19 22:00N 50°49' W 127°22'816.9
2017-Sep-19 21:30N 50°52' W 127°34'816.5
2017-Sep-19 21:00N 50°57' W 127°45'510.6
2017-Sep-19 20:30N 51°01' W 127°51'917.1
2017-Sep-19 20:00N 51°05' W 128°02'817.0
2017-Sep-19 19:30N 51°10' W 128°13'917.2
2017-Sep-19 19:00N 51°15' W 128°25'816.9
2017-Sep-19 18:31N 51°20' W 128°35'816.8
2017-Sep-19 18:01N 51°25' W 128°47'7432.0
2017-Sep-19 18:00N 51°18' W 128°42'1531.1 350 / 51006.710.8 13.5 7.414.0
2017-Sep-19 17:30N 51°29' W 128°58'816.5
2017-Sep-19 17:01N 51°34' W 129°09'816.3
2017-Sep-19 16:30N 51°39' W 129°19'816.2
2017-Sep-19 16:00N 51°44' W 129°29'916.7
2017-Sep-19 15:28N 51°52' W 129°36'8817.8
2017-Sep-19 10:32N 53°12' W 130°38'117.7
2017-Sep-19 10:27N 53°13' W 130°39'817.8
2017-Sep-19 10:00N 53°20' W 130°44'917.3
2017-Sep-19 09:30N 53°28' W 130°49'917.3
2017-Sep-19 09:00N 53°37' W 130°51'817.1
2017-Sep-19 08:30N 53°45' W 130°54'816.8
2017-Sep-19 08:00N 53°53' W 130°56'816.8
2017-Sep-19 07:30N 54°02' W 130°59'816.9
2017-Sep-19 07:00N 54°10' W 131°00'4268.9
2017-Sep-19 07:00N 54°06' W 131°00'1326.5 220 / 101005.6 5.4 12.5 8.5 9.0
2017-Sep-19 06:30N 54°19' W 131°04'917.7
2017-Sep-19 06:00N 54°26' W 131°11'816.7
2017-Sep-19 05:30N 54°34' W 131°16'916.1
2017-Sep-19 04:57N 54°43' W 131°14'817.1
2017-Sep-19 04:29N 54°51' W 131°09'145 6.7
2017-Sep-18 07:00N 56°24' W 134°24'11119.9 130 / 51001.7 5.4 9.5 7.410.0
2017-Sep-18 01:23N 58°11' W 135°22'920.3
2017-Sep-18 00:58N 58°15' W 135°36'818.2
2017-Sep-18 00:30N 58°19' W 135°50'815.9
2017-Sep-18 00:00N 58°25' W 135°59'612.4
2017-Sep-17 23:30N 58°31' W 136°04'815.3
2017-Sep-17 23:00N 58°38' W 136°07'816.3
2017-Sep-17 22:31N 58°44' W 136°18'27 7.6
2017-Sep-17 19:00N 59°00' W 137°00'25 8.5 230 / 4998.8 5.4 8.0 6.3 7.0
2017-Sep-17 16:03N 58°46' W 136°20'117.0
2017-Sep-17 15:59N 58°45' W 136°18'817.0
2017-Sep-17 15:30N 58°39' W 136°08'816.2
2017-Sep-17 15:00N 58°31' W 136°04'713.4
2017-Sep-17 14:31N 58°25' W 135°57'611.4
2017-Sep-17 14:00N 58°20' W 135°56'611.2
2017-Sep-17 13:30N 58°18' W 135°46'40 6.1
2017-Sep-17 07:00N 58°54' W 135°12'57 2.4 070 / 31005.2 5.4 9.5 7.4 8.0
2017-Sep-16 07:00N 58°06' W 134°12'194 8.1 170 / 31018.5 5.4 8.5 7.4 9.0
2017-Sep-15 07:00N 54°54' W 133°24'5314.0 320 / 281021.4 5.4 12.0 9.013.0
2017-Sep-15 03:10N 54°28' W 132°04'520.2
2017-Sep-15 02:56N 54°27' W 131°56'819.5
2017-Sep-15 02:30N 54°25' W 131°42'1019.3
2017-Sep-15 02:00N 54°23' W 131°25'1019.2
2017-Sep-15 01:30N 54°21' W 131°09'917.5
2017-Sep-15 01:00N 54°14' W 131°01'1019.9
2017-Sep-15 00:30N 54°04' W 130°59'1020.0
2017-Sep-15 00:00N 53°54' W 130°56'1020.0
2017-Sep-14 23:30N 53°44' W 130°53'1120.0
2017-Sep-14 22:59N 53°34' W 130°50'1419.8
2017-Sep-14 22:17N 53°21' W 130°44'820.2
2017-Sep-14 21:53N 53°13' W 130°39'8119.9
2017-Sep-14 17:48N 51°60' W 129°42'720.0
2017-Sep-14 17:27N 51°53' W 129°37'919.9
2017-Sep-14 17:00N 51°46' W 129°30'1019.8
2017-Sep-14 16:30N 51°39' W 129°19'1019.6
2017-Sep-14 15:59N 51°33' W 129°05'920.0
2017-Sep-14 15:30N 51°27' W 128°53'1020.5
2017-Sep-14 15:01N 51°21' W 128°39'1020.6
2017-Sep-14 14:30N 51°16' W 128°26'1020.4
2017-Sep-14 14:00N 51°10' W 128°12'1020.2
2017-Sep-14 13:30N 51°04' W 127°59'1019.1
2017-Sep-14 13:00N 50°59' W 127°46'713.1
2017-Sep-14 12:30N 50°54' W 127°39'918.0
2017-Sep-14 12:00N 50°50' W 127°27'1020.9
2017-Sep-14 11:30N 50°46' W 127°11'1020.2
2017-Sep-14 11:00N 50°42' W 126°56'918.1
2017-Sep-14 10:30N 50°37' W 126°45'814.1
2017-Sep-14 09:56N 50°31' W 126°36'817.1
2017-Sep-14 09:28N 50°30' W 126°24'3717.5
2017-Sep-14 07:23N 50°20' W 125°28'512.6
2017-Sep-14 07:00N 50°17' W 125°24'815.3
2017-Sep-14 06:30N 50°09' W 125°21'612.0
2017-Sep-14 06:00N 50°04' W 125°16'712.9
2017-Sep-14 05:30N 49°59' W 125°11'816.5
2017-Sep-14 05:00N 49°52' W 125°03'917.1
2017-Sep-14 04:30N 49°46' W 124°54'816.3
2017-Sep-14 04:00N 49°40' W 124°45'816.8
2017-Sep-14 03:30N 49°35' W 124°36'816.7
2017-Sep-14 03:00N 49°28' W 124°27'917.1
2017-Sep-14 02:31N 49°24' W 124°15'816.7
2017-Sep-14 02:00N 49°23' W 124°03'816.8
2017-Sep-14 01:31N 49°22' W 123°50'816.7
2017-Sep-14 01:01N 49°20' W 123°37'816.5
2017-Sep-14 00:31N 49°18' W 123°25'816.5
2017-Sep-14 00:01N 49°19' W 123°12'4 8.5
2017-Sep-13 23:30N 49°17' W 123°06'0 0.0
2017-Sep-13 23:00N 49°17' W 123°06'0 0.0
2017-Sep-13 22:30N 49°17' W 123°06'0 0.0
2017-Sep-13 22:00N 49°17' W 123°06'0 0.0
2017-Sep-13 21:30N 49°17' W 123°06'0 0.0
2017-Sep-13 20:59N 49°17' W 123°06'0 0.0
2017-Sep-13 20:29N 49°17' W 123°06'0 0.0
2017-Sep-13 19:58N 49°17' W 123°06'0 0.0
2017-Sep-13 19:28N 49°17' W 123°06'0 0.0
2017-Sep-13 18:54N 49°17' W 123°06'0 0.0
2017-Sep-13 18:29N 49°17' W 123°06'0 0.0
2017-Sep-13 17:58N 49°17' W 123°06'0 0.0
2017-Sep-13 17:30N 49°17' W 123°06'0 0.0
2017-Sep-13 17:01N 49°17' W 123°06'0 0.0
2017-Sep-13 16:30N 49°17' W 123°06'0 0.0
2017-Sep-13 15:57N 49°17' W 123°06'0 0.0
2017-Sep-13 15:29N 49°17' W 123°06'0 0.0
2017-Sep-13 14:59N 49°17' W 123°06'0 0.0
2017-Sep-13 14:29N 49°17' W 123°06'0 0.0
2017-Sep-13 14:00N 49°17' W 123°06'0 0.4
2017-Sep-13 13:30N 49°18' W 123°06'3 6.6
2017-Sep-13 13:00N 49°19' W 123°11'611.5
2017-Sep-13 12:31N 49°18' W 123°19'612.3
2017-Sep-13 12:01N 49°18' W 123°29'612.4
2017-Sep-13 11:31N 49°19' W 123°38'612.6
2017-Sep-13 11:00N 49°20' W 123°48'612.8
2017-Sep-13 10:30N 49°21' W 123°57'713.1
2017-Sep-13 10:01N 49°22' W 124°07'4263.4
2017-Sep-13 10:00N 49°18' W 124°06'919.6 290 / 151014.910.8 14.010.217.0
2017-Sep-13 09:30N 49°25' W 124°16'612.9
2017-Sep-13 09:00N 49°28' W 124°25'612.7
2017-Sep-13 08:31N 49°32' W 124°32'612.9
2017-Sep-13 08:01N 49°37' W 124°39'714.3
2017-Sep-13 07:30N 49°42' W 124°46'714.1
2017-Sep-13 07:01N 49°47' W 124°53'815.0
2017-Sep-13 06:30N 49°53' W 125°01'917.0
2017-Sep-13 06:00N 49°59' W 125°11'713.1
2017-Sep-13 05:30N 50°04' W 125°16'612.0
2017-Sep-13 05:01N 50°09' W 125°21'713.6
2017-Sep-13 04:28N 50°16' W 125°24'612.2
2017-Sep-13 03:57N 50°21' W 125°31'1012.0
2017-Sep-13 03:07N 50°22' W 125°47'2813.0
2017-Sep-13 00:56N 50°30' W 126°29'712.6
2017-Sep-13 00:23N 50°32' W 126°40'612.6
2017-Sep-12 23:57N 50°36' W 126°44'816.6
2017-Sep-12 23:27N 50°41' W 126°55'816.4
2017-Sep-12 22:57N 50°44' W 127°07'716.4
2017-Sep-12 22:30N 50°47' W 127°18'917.4
2017-Sep-12 22:00N 50°51' W 127°30'917.6
2017-Sep-12 21:30N 50°56' W 127°42'712.8
2017-Sep-12 20:59N 50°60' W 127°51'715.4
2017-Sep-12 20:30N 51°04' W 127°60'917.3
2017-Sep-12 20:00N 51°09' W 128°11'815.5
2017-Sep-12 19:30N 51°13' W 128°21'815.7
2017-Sep-12 19:00N 51°18' W 128°31'816.8
2017-Sep-12 18:30N 51°23' W 128°42'816.6
2017-Sep-12 18:00N 51°27' W 128°53'5298.8
2017-Sep-12 18:00N 51°24' W 128°48'1326.1 320 / 121020.910.8 14.010.614.0
2017-Sep-12 17:30N 51°32' W 129°04'816.8
2017-Sep-12 17:00N 51°37' W 129°15'815.3
2017-Sep-12 16:30N 51°41' W 129°25'816.9
2017-Sep-12 16:00N 51°48' W 129°33'2217.3
2017-Sep-12 14:45N 52°07' W 129°49'7816.3
2017-Sep-12 10:00N 53°18' W 130°42'   010 / 61022.310.8 12.510.615.0
Track history (hours):
 
Tides and Currents Weather Stations Pressure Air Temp Water Temp Dewpoint Dewpoint Depression Visibility Wind Speed Wind Dir Waves Ship Positions

Island Princess

Operator: Princess Cruises

Last reported at 2017-Sep-22 10:00 UTC. Time now 2017-Sep-22 13:48 UTC.
Position N 39°48' W 124°30'.

Type: Ship. MMSI: 310384000.

Wind from 010 at 12 knots

Barometer 1015.0 mb
Air temperature 14.0 ° C
Visibility: greater than 10.8 NM
Dewpoint 10.2 ° C
Water temperature 18.0 ° C

Date/timePositionNaut miles runAvg speedWind from/ knotsBaromVisibWave heightAir tempDewpointWater temp
2017-Sep-22 10:00N 39°48' W 124°30'596149.1 010 / 121015.010.8 14.010.218.0
2017-Sep-22 06:00N 45°48' W 135°18'45156.4 220 / 101015.0 5.4 15.012.318.0
2017-Sep-21 22:00N 44°00' W 125°00'8326.3 220 / 81012.910.8 15.013.216.0
2017-Sep-21 18:50N 45°23' W 125°08'0 0.4
2017-Sep-21 18:01N 45°23' W 125°08'020.8
2017-Sep-21 18:00N 45°23' W 125°08'6537.4
2017-Sep-21 18:00N 45°18' W 125°06'1632.3 150 / 81013.010.8 15.512.812.0
2017-Sep-21 17:30N 45°34' W 125°09'1020.4
2017-Sep-21 17:00N 45°44' W 125°10'1020.2
2017-Sep-21 16:30N 45°54' W 125°10'1020.3
2017-Sep-21 16:00N 46°04' W 125°11'1020.1
2017-Sep-21 15:30N 46°14' W 125°12'1020.4
2017-Sep-21 15:00N 46°24' W 125°13'1020.4
2017-Sep-21 14:30N 46°34' W 125°13'1020.3
2017-Sep-21 14:00N 46°45' W 125°14'6620.2
2017-Sep-21 10:44N 47°50' W 125°19'720.2
2017-Sep-21 10:24N 47°57' W 125°21'1219.9
2017-Sep-21 09:49N 48°08' W 125°14'619.6
2017-Sep-21 09:29N 48°14' W 125°11'1019.9
2017-Sep-21 09:00N 48°23' W 125°08'918.3
2017-Sep-21 08:29N 48°31' W 125°00'1019.7
2017-Sep-21 08:00N 48°31' W 124°46'1020.6
2017-Sep-21 07:30N 48°27' W 124°32'1121.2
2017-Sep-21 07:00N 48°23' W 124°17'161153.7
2017-Sep-21 07:00N 48°18' W 123°54'510.1 270 / 121009.9 5.4 11.0 9.0 9.0
2017-Sep-21 06:30N 48°19' W 124°01'1121.7
2017-Sep-21 06:00N 48°17' W 123°46'1122.2
2017-Sep-21 05:30N 48°17' W 123°29'816.0
2017-Sep-21 05:00N 48°23' W 123°22'713.9
2017-Sep-21 04:30N 48°25' W 123°12'611.8
2017-Sep-21 04:00N 48°31' W 123°13'612.0
2017-Sep-21 03:30N 48°37' W 123°14'713.6
2017-Sep-21 03:00N 48°43' W 123°11'917.4
2017-Sep-21 02:30N 48°49' W 123°01'917.6
2017-Sep-21 02:00N 48°55' W 123°10'917.5
2017-Sep-21 01:30N 49°01' W 123°19'816.3
2017-Sep-21 01:00N 49°09' W 123°23'917.7
2017-Sep-21 00:30N 49°18' W 123°21'815.8
2017-Sep-21 00:00N 49°19' W 123°09'3 5.1
2017-Sep-20 23:30N 49°17' W 123°06'0 0.0
2017-Sep-20 22:58N 49°17' W 123°06'0 0.0
2017-Sep-20 22:28N 49°17' W 123°06'0 0.0
2017-Sep-20 22:00N 49°17' W 123°06'0 0.0
2017-Sep-20 21:30N 49°17' W 123°06'0 0.0
2017-Sep-20 21:00N 49°17' W 123°06'0 0.0
2017-Sep-20 20:30N 49°17' W 123°06'0 0.0
2017-Sep-20 19:59N 49°17' W 123°06'0 0.0
2017-Sep-20 19:30N 49°17' W 123°06'0 0.0
2017-Sep-20 19:00N 49°17' W 123°06'0 0.0
2017-Sep-20 18:30N 49°17' W 123°06'0 0.0
2017-Sep-20 18:00N 49°17' W 123°06'0 0.0
2017-Sep-20 17:30N 49°17' W 123°06'0 0.0
2017-Sep-20 17:00N 49°17' W 123°06'0 0.0
2017-Sep-20 16:30N 49°17' W 123°06'0 0.0
2017-Sep-20 16:00N 49°17' W 123°06'0 0.0
2017-Sep-20 15:29N 49°17' W 123°06'0 0.0
2017-Sep-20 14:59N 49°17' W 123°06'0 0.0
2017-Sep-20 14:00N 49°17' W 123°06'0 0.8
2017-Sep-20 13:30N 49°18' W 123°06'4 7.8
2017-Sep-20 13:00N 49°19' W 123°12'611.5
2017-Sep-20 12:30N 49°18' W 123°21'713.4
2017-Sep-20 12:00N 49°19' W 123°31'815.6
2017-Sep-20 11:30N 49°20' W 123°43'917.4
2017-Sep-20 11:00N 49°21' W 123°56'917.4
2017-Sep-20 10:30N 49°23' W 124°09'917.3
2017-Sep-20 10:00N 49°26' W 124°21'3198.8
2017-Sep-20 10:00N 49°24' W 124°18'1224.7 350 / 61004.910.8 12.010.112.0
2017-Sep-20 09:30N 49°32' W 124°32'917.4
2017-Sep-20 09:00N 49°39' W 124°40'917.4
2017-Sep-20 08:30N 49°45' W 124°50'917.6
2017-Sep-20 08:00N 49°51' W 124°59'917.3
2017-Sep-20 07:30N 49°57' W 125°09'713.6
2017-Sep-20 07:00N 50°03' W 125°14'713.5
2017-Sep-20 06:30N 50°08' W 125°21'510.1
2017-Sep-20 06:00N 50°13' W 125°23'5 9.5
2017-Sep-20 05:28N 50°18' W 125°25'12 8.6
2017-Sep-20 04:08N 50°22' W 125°42'3 9.8
2017-Sep-20 03:53N 50°22' W 125°46'17 9.4
2017-Sep-20 02:04N 50°28' W 126°10'1 9.2
2017-Sep-20 01:56N 50°29' W 126°12'8 9.4
2017-Sep-20 01:05N 50°30' W 126°25'210.8
2017-Sep-20 00:54N 50°30' W 126°28'12 9.8
2017-Sep-19 23:41N 50°36' W 126°44'315.1
2017-Sep-19 23:27N 50°38' W 126°48'817.0
2017-Sep-19 23:00N 50°43' W 126°58'916.2
2017-Sep-19 22:27N 50°46' W 127°11'716.3
2017-Sep-19 22:00N 50°49' W 127°22'816.9
2017-Sep-19 21:30N 50°52' W 127°34'816.5
2017-Sep-19 21:00N 50°57' W 127°45'510.6
2017-Sep-19 20:30N 51°01' W 127°51'917.1
2017-Sep-19 20:00N 51°05' W 128°02'817.0
2017-Sep-19 19:30N 51°10' W 128°13'917.2
2017-Sep-19 19:00N 51°15' W 128°25'816.9
2017-Sep-19 18:31N 51°20' W 128°35'816.8
2017-Sep-19 18:01N 51°25' W 128°47'7432.0
2017-Sep-19 18:00N 51°18' W 128°42'1531.1 350 / 51006.710.8 13.5 7.414.0
2017-Sep-19 17:30N 51°29' W 128°58'816.5
2017-Sep-19 17:01N 51°34' W 129°09'816.3
2017-Sep-19 16:30N 51°39' W 129°19'816.2
2017-Sep-19 16:00N 51°44' W 129°29'916.7
2017-Sep-19 15:28N 51°52' W 129°36'8817.8
2017-Sep-19 10:32N 53°12' W 130°38'117.7
2017-Sep-19 10:27N 53°13' W 130°39'817.8
2017-Sep-19 10:00N 53°20' W 130°44'917.3
2017-Sep-19 09:30N 53°28' W 130°49'917.3
2017-Sep-19 09:00N 53°37' W 130°51'817.1
2017-Sep-19 08:30N 53°45' W 130°54'816.8
2017-Sep-19 08:00N 53°53' W 130°56'816.8
2017-Sep-19 07:30N 54°02' W 130°59'816.9
2017-Sep-19 07:00N 54°10' W 131°00'4268.9
2017-Sep-19 07:00N 54°06' W 131°00'1326.5 220 / 101005.6 5.4 12.5 8.5 9.0
2017-Sep-19 06:30N 54°19' W 131°04'917.7
2017-Sep-19 06:00N 54°26' W 131°11'816.7
2017-Sep-19 05:30N 54°34' W 131°16'916.1
2017-Sep-19 04:57N 54°43' W 131°14'817.1
2017-Sep-19 04:29N 54°51' W 131°09'145 6.7
2017-Sep-18 07:00N 56°24' W 134°24'11119.9 130 / 51001.7 5.4 9.5 7.410.0
2017-Sep-18 01:23N 58°11' W 135°22'920.3
2017-Sep-18 00:58N 58°15' W 135°36'818.2
2017-Sep-18 00:30N 58°19' W 135°50'815.9
2017-Sep-18 00:00N 58°25' W 135°59'612.4
2017-Sep-17 23:30N 58°31' W 136°04'815.3
2017-Sep-17 23:00N 58°38' W 136°07'816.3
2017-Sep-17 22:31N 58°44' W 136°18'27 7.6
2017-Sep-17 19:00N 59°00' W 137°00'25 8.5 230 / 4998.8 5.4 8.0 6.3 7.0
2017-Sep-17 16:03N 58°46' W 136°20'117.0
2017-Sep-17 15:59N 58°45' W 136°18'817.0
2017-Sep-17 15:30N 58°39' W 136°08'816.2
2017-Sep-17 15:00N 58°31' W 136°04'713.4
2017-Sep-17 14:31N 58°25' W 135°57'611.4
2017-Sep-17 14:00N 58°20' W 135°56'611.2
2017-Sep-17 13:30N 58°18' W 135°46'40 6.1
2017-Sep-17 07:00N 58°54' W 135°12'57 2.4 070 / 31005.2 5.4 9.5 7.4 8.0
2017-Sep-16 07:00N 58°06' W 134°12'194 8.1 170 / 31018.5 5.4 8.5 7.4 9.0
2017-Sep-15 07:00N 54°54' W 133°24'5314.0 320 / 281021.4 5.4 12.0 9.013.0
2017-Sep-15 03:10N 54°28' W 132°04'520.2
2017-Sep-15 02:56N 54°27' W 131°56'819.5
2017-Sep-15 02:30N 54°25' W 131°42'1019.3
2017-Sep-15 02:00N 54°23' W 131°25'1019.2
2017-Sep-15 01:30N 54°21' W 131°09'917.5
2017-Sep-15 01:00N 54°14' W 131°01'1019.9
2017-Sep-15 00:30N 54°04' W 130°59'1020.0
2017-Sep-15 00:00N 53°54' W 130°56'1020.0
2017-Sep-14 23:30N 53°44' W 130°53'1120.0
2017-Sep-14 22:59N 53°34' W 130°50'1419.8
2017-Sep-14 22:17N 53°21' W 130°44'820.2
2017-Sep-14 21:53N 53°13' W 130°39'8119.9
2017-Sep-14 17:48N 51°60' W 129°42'720.0
2017-Sep-14 17:27N 51°53' W 129°37'919.9
2017-Sep-14 17:00N 51°46' W 129°30'1019.8
2017-Sep-14 16:30N 51°39' W 129°19'1019.6
2017-Sep-14 15:59N 51°33' W 129°05'920.0
2017-Sep-14 15:30N 51°27' W 128°53'1020.5
2017-Sep-14 15:01N 51°21' W 128°39'1020.6
2017-Sep-14 14:30N 51°16' W 128°26'1020.4
2017-Sep-14 14:00N 51°10' W 128°12'1020.2
2017-Sep-14 13:30N 51°04' W 127°59'1019.1
2017-Sep-14 13:00N 50°59' W 127°46'713.1
2017-Sep-14 12:30N 50°54' W 127°39'918.0
2017-Sep-14 12:00N 50°50' W 127°27'1020.9
2017-Sep-14 11:30N 50°46' W 127°11'1020.2
2017-Sep-14 11:00N 50°42' W 126°56'918.1
2017-Sep-14 10:30N 50°37' W 126°45'814.1
2017-Sep-14 09:56N 50°31' W 126°36'817.1
2017-Sep-14 09:28N 50°30' W 126°24'3717.5
2017-Sep-14 07:23N 50°20' W 125°28'512.6
2017-Sep-14 07:00N 50°17' W 125°24'815.3
2017-Sep-14 06:30N 50°09' W 125°21'612.0
2017-Sep-14 06:00N 50°04' W 125°16'712.9
2017-Sep-14 05:30N 49°59' W 125°11'816.5
2017-Sep-14 05:00N 49°52' W 125°03'917.1
2017-Sep-14 04:30N 49°46' W 124°54'816.3
2017-Sep-14 04:00N 49°40' W 124°45'816.8
2017-Sep-14 03:30N 49°35' W 124°36'816.7
2017-Sep-14 03:00N 49°28' W 124°27'917.1
2017-Sep-14 02:31N 49°24' W 124°15'816.7
2017-Sep-14 02:00N 49°23' W 124°03'816.8
2017-Sep-14 01:31N 49°22' W 123°50'816.7
2017-Sep-14 01:01N 49°20' W 123°37'816.5
2017-Sep-14 00:31N 49°18' W 123°25'816.5
2017-Sep-14 00:01N 49°19' W 123°12'4 8.5
2017-Sep-13 23:30N 49°17' W 123°06'0 0.0
2017-Sep-13 23:00N 49°17' W 123°06'0 0.0
2017-Sep-13 22:30N 49°17' W 123°06'0 0.0
2017-Sep-13 22:00N 49°17' W 123°06'0 0.0
2017-Sep-13 21:30N 49°17' W 123°06'0 0.0
2017-Sep-13 20:59N 49°17' W 123°06'0 0.0
2017-Sep-13 20:29N 49°17' W 123°06'0 0.0
2017-Sep-13 19:58N 49°17' W 123°06'0 0.0
2017-Sep-13 19:28N 49°17' W 123°06'0 0.0
2017-Sep-13 18:54N 49°17' W 123°06'0 0.0
2017-Sep-13 18:29N 49°17' W 123°06'0 0.0
2017-Sep-13 17:58N 49°17' W 123°06'0 0.0
2017-Sep-13 17:30N 49°17' W 123°06'0 0.0
2017-Sep-13 17:01N 49°17' W 123°06'0 0.0
2017-Sep-13 16:30N 49°17' W 123°06'0 0.0
2017-Sep-13 15:57N 49°17' W 123°06'0 0.0
2017-Sep-13 15:29N 49°17' W 123°06'0 0.0
2017-Sep-13 14:59N 49°17' W 123°06'0 0.0
2017-Sep-13 14:29N 49°17' W 123°06'0 0.0
2017-Sep-13 14:00N 49°17' W 123°06'0 0.4
2017-Sep-13 13:30N 49°18' W 123°06'3 6.6
2017-Sep-13 13:00N 49°19' W 123°11'611.5
2017-Sep-13 12:31N 49°18' W 123°19'612.3
2017-Sep-13 12:01N 49°18' W 123°29'612.4
2017-Sep-13 11:31N 49°19' W 123°38'612.6
2017-Sep-13 11:00N 49°20' W 123°48'612.8
2017-Sep-13 10:30N 49°21' W 123°57'713.1
2017-Sep-13 10:01N 49°22' W 124°07'4263.4
2017-Sep-13 10:00N 49°18' W 124°06'919.6 290 / 151014.910.8 14.010.217.0
2017-Sep-13 09:30N 49°25' W 124°16'612.9
2017-Sep-13 09:00N 49°28' W 124°25'612.7
2017-Sep-13 08:31N 49°32' W 124°32'612.9
2017-Sep-13 08:01N 49°37' W 124°39'714.3
2017-Sep-13 07:30N 49°42' W 124°46'714.1
2017-Sep-13 07:01N 49°47' W 124°53'815.0
2017-Sep-13 06:30N 49°53' W 125°01'917.0
2017-Sep-13 06:00N 49°59' W 125°11'713.1
2017-Sep-13 05:30N 50°04' W 125°16'612.0
2017-Sep-13 05:01N 50°09' W 125°21'713.6
2017-Sep-13 04:28N 50°16' W 125°24'612.2
2017-Sep-13 03:57N 50°21' W 125°31'1012.0
2017-Sep-13 03:07N 50°22' W 125°47'2813.0
2017-Sep-13 00:56N 50°30' W 126°29'712.6
2017-Sep-13 00:23N 50°32' W 126°40'612.6
2017-Sep-12 23:57N 50°36' W 126°44'816.6
2017-Sep-12 23:27N 50°41' W 126°55'816.4
2017-Sep-12 22:57N 50°44' W 127°07'716.4
2017-Sep-12 22:30N 50°47' W 127°18'917.4
2017-Sep-12 22:00N 50°51' W 127°30'917.6
2017-Sep-12 21:30N 50°56' W 127°42'712.8
2017-Sep-12 20:59N 50°60' W 127°51'715.4
2017-Sep-12 20:30N 51°04' W 127°60'917.3
2017-Sep-12 20:00N 51°09' W 128°11'815.5
2017-Sep-12 19:30N 51°13' W 128°21'815.7
2017-Sep-12 19:00N 51°18' W 128°31'816.8
2017-Sep-12 18:30N 51°23' W 128°42'816.6
2017-Sep-12 18:00N 51°27' W 128°53'5298.8
2017-Sep-12 18:00N 51°24' W 128°48'1326.1 320 / 121020.910.8 14.010.614.0
2017-Sep-12 17:30N 51°32' W 129°04'816.8
2017-Sep-12 17:00N 51°37' W 129°15'815.3
2017-Sep-12 16:30N 51°41' W 129°25'816.9
2017-Sep-12 16:00N 51°48' W 129°33'2217.3
2017-Sep-12 14:45N 52°07' W 129°49'7816.3
2017-Sep-12 10:00N 53°18' W 130°42'   010 / 61022.310.8 12.510.615.0

Dump ship's entire track history